createdAt,value
2022-07-25T00:01:17.750Z,87.60
2022-07-25T00:03:48.405Z,87.00
2022-07-25T00:06:17.870Z,86.90
2022-07-25T00:08:46.007Z,87.80
2022-07-25T00:11:13.844Z,89.70
2022-07-25T00:13:41.674Z,90.80
2022-07-25T00:16:11.251Z,91.50
2022-07-25T00:18:39.241Z,91.80
2022-07-25T00:21:07.264Z,92.10
2022-07-25T00:23:35.067Z,90.00
2022-07-25T00:26:03.021Z,87.70
2022-07-25T00:28:30.905Z,83.40
2022-07-25T00:30:58.804Z,83.80
2022-07-25T00:33:27.984Z,82.10
2022-07-25T00:35:55.895Z,81.30
2022-07-25T00:38:23.777Z,81.70
2022-07-25T00:40:55.496Z,80.70
2022-07-25T00:43:23.754Z,81.10
2022-07-25T00:45:51.703Z,80.00
2022-07-25T00:48:19.555Z,80.30
2022-07-25T00:50:48.891Z,81.10
2022-07-25T00:53:16.959Z,80.80
2022-07-25T00:55:44.883Z,80.90
2022-07-25T00:58:12.747Z,81.30
2022-07-25T01:00:40.819Z,81.30
2022-07-25T01:03:08.736Z,81.50
2022-07-25T01:05:36.759Z,81.90
2022-07-25T01:08:06.880Z,81.70
2022-07-25T01:10:35.239Z,82.10
2022-07-25T01:13:03.581Z,81.20
2022-07-25T01:15:31.607Z,81.20
2022-07-25T01:17:59.708Z,81.40
2022-07-25T01:20:31.193Z,81.40
2022-07-25T01:23:00.153Z,81.00
2022-07-25T01:25:29.037Z,81.00
2022-07-25T01:27:57.784Z,80.60
2022-07-25T01:30:26.784Z,80.80
2022-07-25T01:32:54.709Z,81.20
2022-07-25T01:35:22.622Z,81.30
2022-07-25T01:37:51.992Z,81.20
2022-07-25T01:40:19.817Z,81.50
2022-07-25T01:42:47.647Z,81.30
2022-07-25T01:45:15.529Z,81.50
2022-07-25T01:47:43.379Z,81.00
2022-07-25T01:50:11.736Z,81.10
2022-07-25T01:52:40.382Z,81.40
2022-07-25T01:55:10.733Z,81.50
2022-07-25T01:57:40.617Z,81.30
2022-07-25T02:00:17.178Z,81.40
2022-07-25T02:02:45.967Z,82.00
2022-07-25T02:05:16.990Z,81.60
2022-07-25T02:07:44.851Z,81.50
2022-07-25T02:10:14.021Z,81.90
2022-07-25T02:12:41.816Z,81.40
2022-07-25T02:15:10.512Z,81.20
2022-07-25T02:17:38.476Z,81.10
2022-07-25T02:20:07.521Z,81.30
2022-07-25T02:22:35.330Z,81.40
2022-07-25T02:25:03.167Z,81.80
2022-07-25T02:27:32.408Z,81.40
2022-07-25T02:30:00.253Z,81.20
2022-07-25T02:32:28.153Z,81.40
2022-07-25T02:34:55.986Z,81.60
2022-07-25T02:37:23.835Z,81.50
2022-07-25T02:39:51.825Z,81.80
2022-07-25T02:42:19.654Z,82.10
2022-07-25T02:44:48.834Z,81.80
2022-07-25T02:47:16.696Z,81.80
2022-07-25T02:49:44.473Z,81.10
2022-07-25T02:52:12.285Z,82.20
2022-07-25T02:54:40.182Z,82.10
2022-07-25T02:57:08.091Z,82.40
2022-07-25T02:59:36.386Z,82.90
2022-07-25T03:02:05.561Z,82.70
2022-07-25T03:04:33.512Z,83.20
2022-07-25T03:07:01.440Z,83.30
2022-07-25T03:09:29.365Z,83.30
2022-07-25T03:11:57.173Z,83.60
2022-07-25T03:14:25.137Z,84.50
2022-07-25T03:16:53.455Z,84.10
2022-07-25T03:19:22.751Z,84.20
2022-07-25T03:21:51.543Z,85.10
2022-07-25T03:24:19.871Z,83.60
2022-07-25T03:26:47.703Z,83.70
2022-07-25T03:29:15.526Z,83.30
2022-07-25T03:31:43.409Z,82.80
2022-07-25T03:34:11.280Z,83.30
2022-07-25T03:36:40.420Z,84.50
2022-07-25T03:39:08.271Z,84.20
2022-07-25T03:41:36.097Z,83.00
2022-07-25T03:44:05.253Z,83.10
2022-07-25T03:46:33.254Z,83.10
2022-07-25T03:49:01.139Z,83.00
2022-07-25T03:51:29.084Z,82.90
2022-07-25T03:54:05.251Z,83.30
2022-07-25T03:56:40.294Z,83.20
2022-07-25T03:59:13.526Z,84.50
2022-07-25T04:01:41.978Z,82.20
2022-07-25T04:04:10.421Z,82.50
2022-07-25T04:06:40.005Z,82.40
2022-07-25T04:09:12.098Z,82.10
2022-07-25T04:11:39.968Z,82.20
2022-07-25T04:14:08.259Z,82.30
2022-07-25T04:16:36.898Z,82.10
2022-07-25T04:19:06.290Z,82.10
2022-07-25T04:21:35.356Z,82.10
2022-07-25T04:24:03.911Z,81.70
2022-07-25T04:26:33.430Z,80.70
2022-07-25T04:29:03.451Z,80.90
2022-07-25T04:31:31.769Z,80.30
2022-07-25T04:34:00.031Z,80.00
2022-07-25T04:36:28.187Z,78.90
2022-07-25T04:38:56.089Z,78.90
2022-07-25T04:41:24.134Z,78.90
2022-07-25T04:43:53.419Z,78.40
2022-07-25T04:46:21.483Z,78.00
2022-07-25T04:48:50.570Z,77.40
2022-07-25T04:51:19.038Z,77.60
2022-07-25T04:53:47.284Z,77.00
2022-07-25T04:56:15.226Z,75.90
2022-07-25T04:58:43.619Z,75.40
2022-07-25T05:01:13.003Z,74.70
2022-07-25T05:03:40.973Z,75.10
2022-07-25T05:06:18.495Z,74.70
2022-07-25T05:08:46.808Z,74.90
2022-07-25T05:11:14.631Z,75.20
2022-07-25T05:13:42.506Z,75.70
2022-07-25T05:16:11.763Z,75.90
2022-07-25T05:18:39.615Z,75.30
2022-07-25T05:21:11.258Z,75.40
2022-07-25T05:23:39.199Z,75.20
2022-07-25T05:26:07.406Z,75.30
2022-07-25T05:28:35.226Z,75.30
2022-07-25T05:31:03.142Z,75.50
2022-07-25T05:33:32.454Z,75.20
2022-07-25T05:36:01.144Z,75.70
2022-07-25T05:38:29.906Z,76.00
2022-07-25T05:40:57.772Z,75.70
2022-07-25T05:43:25.884Z,75.30
2022-07-25T05:45:54.399Z,75.30
2022-07-25T05:48:22.234Z,75.40
2022-07-25T05:50:51.501Z,75.40
2022-07-25T05:53:19.311Z,74.70
2022-07-25T05:55:47.133Z,74.30
2022-07-25T05:58:15.362Z,74.60
2022-07-25T06:00:43.327Z,73.50
2022-07-25T06:03:11.224Z,73.80
2022-07-25T06:05:40.143Z,73.40
2022-07-25T06:08:09.388Z,72.80
2022-07-25T06:10:37.418Z,73.10
2022-07-25T06:13:05.219Z,72.10
2022-07-25T06:15:33.350Z,72.40
2022-07-25T06:18:01.631Z,72.40
2022-07-25T06:20:29.482Z,71.80
2022-07-25T06:22:57.326Z,71.40
2022-07-25T06:25:26.777Z,71.60
2022-07-25T06:27:54.656Z,71.50
2022-07-25T06:30:22.649Z,71.40
2022-07-25T06:32:50.989Z,71.00
2022-07-25T06:35:18.994Z,70.70
2022-07-25T06:37:47.426Z,70.80
2022-07-25T06:40:15.596Z,70.50
2022-07-25T06:42:46.173Z,70.60
2022-07-25T06:45:15.559Z,69.80
2022-07-25T06:47:44.474Z,69.90
2022-07-25T06:50:14.733Z,69.30
2022-07-25T06:52:43.533Z,69.30
2022-07-25T06:55:13.018Z,68.80
2022-07-25T06:57:41.591Z,67.50
2022-07-25T07:00:13.388Z,66.90
2022-07-25T07:02:56.114Z,66.60
2022-07-25T07:05:24.554Z,66.40
2022-07-25T07:07:52.833Z,66.40
2022-07-25T07:10:21.902Z,66.80
2022-07-25T07:12:50.358Z,66.00
2022-07-25T07:15:19.882Z,65.40
2022-07-25T07:17:47.741Z,65.50
2022-07-25T07:20:15.572Z,65.50
2022-07-25T07:22:47.325Z,64.90
2022-07-25T07:25:15.626Z,64.20
2022-07-25T07:27:44.076Z,64.40
2022-07-25T07:30:14.682Z,64.00
2022-07-25T07:32:44.408Z,64.00
2022-07-25T07:35:12.955Z,63.70
2022-07-25T07:37:43.595Z,63.30
2022-07-25T07:40:16.866Z,63.60
2022-07-25T07:42:52.700Z,63.80
2022-07-25T07:45:21.951Z,64.00
2022-07-25T07:47:52.919Z,64.80
2022-07-25T07:50:22.486Z,64.60
2022-07-25T07:52:51.428Z,64.20
2022-07-25T07:55:36.732Z,64.10
2022-07-25T07:58:04.885Z,63.40
2022-07-25T08:00:35.427Z,63.70
2022-07-25T08:03:05.766Z,63.10
2022-07-25T08:05:35.098Z,63.50
2022-07-25T08:08:03.687Z,63.30
2022-07-25T08:10:34.874Z,63.00
2022-07-25T08:13:04.524Z,63.20
2022-07-25T08:15:32.376Z,62.00
2022-07-25T08:18:00.374Z,62.30
2022-07-25T08:20:37.926Z,62.00
2022-07-25T08:23:07.120Z,62.20
2022-07-25T08:25:36.679Z,62.00
2022-07-25T08:28:06.295Z,62.30
2022-07-25T08:30:34.695Z,62.40
2022-07-25T08:33:04.680Z,62.90
2022-07-25T08:35:35.092Z,63.10
2022-07-25T08:38:04.536Z,63.30
2022-07-25T08:40:33.329Z,61.90
2022-07-25T08:43:01.566Z,61.30
2022-07-25T08:45:29.948Z,61.50
2022-07-25T08:47:57.984Z,62.20
2022-07-25T08:50:29.829Z,61.80
2022-07-25T08:53:30.326Z,61.10
2022-07-25T08:55:47.878Z,61.60
2022-07-25T08:58:17.550Z,61.80
2022-07-25T09:00:46.009Z,62.30
2022-07-25T09:03:14.129Z,61.90
2022-07-25T09:05:42.735Z,62.50
2022-07-25T09:08:14.015Z,62.30
2022-07-25T09:10:47.293Z,62.30
2022-07-25T09:13:16.385Z,62.00
2022-07-25T09:15:47.699Z,61.60
2022-07-25T09:18:19.392Z,60.90
2022-07-25T09:20:50.016Z,60.80
2022-07-25T09:23:30.878Z,59.80
2022-07-25T09:26:06.565Z,59.20
2022-07-25T09:28:42.300Z,59.20
2022-07-25T09:31:10.643Z,59.80
2022-07-25T09:33:46.849Z,59.80
2022-07-25T09:36:15.367Z,60.00
2022-07-25T09:38:53.800Z,60.50
2022-07-25T09:41:22.095Z,61.00
2022-07-25T09:43:50.133Z,61.40
2022-07-25T09:46:17.985Z,61.60
2022-07-25T09:48:46.230Z,61.80
2022-07-25T09:51:14.186Z,62.00
2022-07-25T09:53:42.569Z,62.10
2022-07-25T09:56:11.699Z,62.80
2022-07-25T09:58:39.714Z,62.90
2022-07-25T10:01:08.538Z,63.10
2022-07-25T10:03:49.680Z,62.90
2022-07-25T10:06:22.358Z,63.00
2022-07-25T10:08:51.456Z,62.80
2022-07-25T10:11:22.525Z,62.30
2022-07-25T10:13:50.864Z,62.20
2022-07-25T10:16:21.123Z,62.20
2022-07-25T10:18:51.236Z,62.80
2022-07-25T10:21:26.292Z,62.90
2022-07-25T10:24:00.236Z,62.90
2022-07-25T10:26:29.809Z,63.10
2022-07-25T10:28:59.033Z,62.90
2022-07-25T10:31:38.391Z,62.90
2022-07-25T10:34:10.253Z,62.90
2022-07-25T10:36:44.096Z,63.10
2022-07-25T10:39:15.281Z,63.10
2022-07-25T10:41:50.236Z,63.40
2022-07-25T10:44:18.365Z,63.30
2022-07-25T10:46:48.451Z,63.30
2022-07-25T10:49:23.590Z,63.70
2022-07-25T10:51:58.638Z,63.50
2022-07-25T10:54:26.536Z,63.60
2022-07-25T10:56:58.839Z,63.70
2022-07-25T10:59:28.157Z,63.80
2022-07-25T11:01:56.470Z,64.40
2022-07-25T11:04:24.781Z,64.30
2022-07-25T11:06:52.857Z,64.60
2022-07-25T11:09:27.332Z,65.00
2022-07-25T11:11:59.103Z,64.10
2022-07-25T11:14:32.323Z,64.00
2022-07-25T11:17:16.319Z,65.20
2022-07-25T11:19:45.935Z,65.70
2022-07-25T11:22:13.842Z,65.30
2022-07-25T11:24:44.080Z,65.30
2022-07-25T11:27:21.325Z,64.50
2022-07-25T11:29:49.323Z,64.60
2022-07-25T11:32:17.305Z,64.50
2022-07-25T11:34:48.304Z,64.60
2022-07-25T11:37:17.169Z,64.80
2022-07-25T11:39:47.556Z,64.90
2022-07-25T11:42:19.027Z,65.00
2022-07-25T11:44:49.117Z,65.10
2022-07-25T11:47:25.967Z,65.50
2022-07-25T11:49:56.163Z,65.90
2022-07-25T11:52:26.054Z,65.90
2022-07-25T11:54:55.039Z,66.00
2022-07-25T11:57:25.535Z,67.10
2022-07-25T11:59:54.126Z,66.10
2022-07-25T12:02:23.765Z,66.20
2022-07-25T12:04:56.147Z,66.20
2022-07-25T12:07:34.190Z,66.30
2022-07-25T12:10:02.094Z,66.20
2022-07-25T12:12:46.141Z,66.50
2022-07-25T12:15:14.917Z,66.60
2022-07-25T12:17:44.168Z,66.60
2022-07-25T12:20:15.689Z,66.90
2022-07-25T12:22:43.730Z,67.10
2022-07-25T12:25:12.549Z,67.00
2022-07-25T12:27:42.471Z,66.90
2022-07-25T12:30:12.892Z,67.20
2022-07-25T12:32:40.762Z,67.30
2022-07-25T12:35:10.427Z,65.70
2022-07-25T12:37:38.930Z,63.50
2022-07-25T12:40:08.439Z,63.40
2022-07-25T12:42:36.296Z,63.50
2022-07-25T12:45:07.568Z,64.70
2022-07-25T12:47:36.016Z,65.10
2022-07-25T12:50:05.234Z,65.10
2022-07-25T12:52:33.223Z,65.10
2022-07-25T12:55:01.167Z,64.90
2022-07-25T12:57:29.181Z,65.20
2022-07-25T12:59:57.920Z,65.80
2022-07-25T13:02:27.097Z,66.50
2022-07-25T13:04:55.121Z,65.70
2022-07-25T13:07:23.020Z,65.90
2022-07-25T13:09:50.882Z,66.00
2022-07-25T13:12:18.692Z,66.20
2022-07-25T13:14:46.479Z,64.80
2022-07-25T13:17:14.362Z,63.90
2022-07-25T13:19:43.631Z,63.70
2022-07-25T13:22:11.543Z,63.70
2022-07-25T13:24:40.038Z,63.90
2022-07-25T13:27:09.353Z,64.20
2022-07-25T13:29:37.607Z,64.50
2022-07-25T13:32:06.510Z,64.50
2022-07-25T13:34:34.321Z,65.40
2022-07-25T13:37:04.502Z,65.90
2022-07-25T13:39:32.422Z,66.00
2022-07-25T13:42:00.213Z,65.60
2022-07-25T13:44:28.108Z,65.50
2022-07-25T13:46:55.974Z,65.70
2022-07-25T13:49:23.824Z,65.70
2022-07-25T13:51:51.928Z,65.90
2022-07-25T13:54:21.185Z,66.00
2022-07-25T13:56:49.076Z,66.20
2022-07-25T13:59:21.237Z,63.90
2022-07-25T14:01:49.830Z,65.50
2022-07-25T14:04:17.926Z,67.00
2022-07-25T14:06:46.512Z,66.70
2022-07-25T14:09:14.378Z,66.40
2022-07-25T14:11:43.572Z,66.40
2022-07-25T14:14:11.367Z,66.30
2022-07-25T14:16:39.201Z,66.00
2022-07-25T14:19:07.908Z,66.00
2022-07-25T14:21:36.209Z,66.00
2022-07-25T14:24:04.389Z,65.80
2022-07-25T14:26:32.312Z,65.80
2022-07-25T14:29:01.618Z,65.80
2022-07-25T14:31:29.783Z,64.30
2022-07-25T14:33:58.024Z,62.70
2022-07-25T14:36:25.838Z,63.50
2022-07-25T14:38:53.880Z,63.60
2022-07-25T14:41:21.785Z,62.50
2022-07-25T14:43:49.628Z,63.20
2022-07-25T14:46:18.798Z,62.30
2022-07-25T14:48:47.506Z,61.50
2022-07-25T14:51:15.399Z,61.60
2022-07-25T14:53:43.207Z,61.30
2022-07-25T14:56:11.113Z,60.50
2022-07-25T14:58:39.637Z,61.00
2022-07-25T15:01:09.055Z,61.70
2022-07-25T15:03:38.348Z,61.90
2022-07-25T15:06:09.730Z,62.00
2022-07-25T15:08:38.789Z,62.90
2022-07-25T15:11:06.917Z,63.40
2022-07-25T15:13:35.302Z,63.30
2022-07-25T15:16:05.987Z,63.10
2022-07-25T15:18:46.889Z,63.50
2022-07-25T15:21:21.719Z,63.00
2022-07-25T15:23:49.537Z,63.70
2022-07-25T15:26:17.370Z,63.50
2022-07-25T15:28:45.325Z,63.30
2022-07-25T15:31:13.486Z,63.90
2022-07-25T15:33:41.356Z,63.70
2022-07-25T15:36:10.620Z,63.60
2022-07-25T15:38:39.891Z,63.60
2022-07-25T15:41:10.560Z,64.60
2022-07-25T15:43:38.756Z,63.70
2022-07-25T15:46:07.069Z,63.80
2022-07-25T15:48:35.155Z,63.70
2022-07-25T15:51:03.472Z,63.70
2022-07-25T15:53:31.442Z,63.70
2022-07-25T15:56:00.613Z,63.20
2022-07-25T15:58:28.472Z,63.50
2022-07-25T16:00:56.454Z,64.20
2022-07-25T16:03:24.400Z,63.30
2022-07-25T16:05:53.751Z,64.00
2022-07-25T16:08:21.646Z,63.90
2022-07-25T16:10:49.506Z,64.70
2022-07-25T16:13:18.883Z,65.00
2022-07-25T16:15:46.861Z,64.70
2022-07-25T16:18:14.909Z,64.10
2022-07-25T16:20:42.853Z,64.90
2022-07-25T16:23:10.666Z,64.00
2022-07-25T16:25:38.587Z,63.80
2022-07-25T16:28:07.211Z,62.90
2022-07-25T16:30:36.729Z,63.40
2022-07-25T16:33:04.768Z,64.10
2022-07-25T16:35:33.125Z,63.20
2022-07-25T16:38:01.646Z,63.60
2022-07-25T16:40:30.810Z,63.80
2022-07-25T16:42:59.543Z,63.60
2022-07-25T16:45:28.127Z,63.70
2022-07-25T16:47:57.348Z,64.00
2022-07-25T16:50:25.246Z,63.70
2022-07-25T16:52:53.560Z,64.20
2022-07-25T16:55:21.504Z,64.10
2022-07-25T16:57:49.356Z,63.60
2022-07-25T17:00:17.626Z,63.60
2022-07-25T17:02:46.575Z,63.50
2022-07-25T17:05:16.130Z,63.80
2022-07-25T17:07:44.059Z,63.10
2022-07-25T17:10:12.012Z,63.00
2022-07-25T17:12:42.173Z,63.20
2022-07-25T17:15:11.023Z,62.50
2022-07-25T17:17:38.911Z,62.30
2022-07-25T17:20:07.967Z,62.90
2022-07-25T17:22:37.143Z,62.60
2022-07-25T17:25:05.746Z,62.80
2022-07-25T17:27:33.646Z,62.80
2022-07-25T17:30:01.532Z,63.90
2022-07-25T17:32:30.074Z,63.40
2022-07-25T17:34:58.464Z,64.20
2022-07-25T17:37:27.608Z,65.00
2022-07-25T17:39:57.125Z,63.90
2022-07-25T17:42:25.057Z,63.00
2022-07-25T17:44:53.499Z,64.10
2022-07-25T17:47:23.043Z,63.30
2022-07-25T17:49:51.591Z,63.60
2022-07-25T17:52:19.388Z,62.70
2022-07-25T17:54:47.307Z,63.60
2022-07-25T17:57:16.642Z,62.10
2022-07-25T17:59:44.495Z,62.80
2022-07-25T18:02:12.519Z,63.20
2022-07-25T18:04:48.774Z,63.60
2022-07-25T18:07:16.685Z,63.40
2022-07-25T18:09:46.661Z,63.30
2022-07-25T18:12:15.821Z,63.50
2022-07-25T18:14:46.440Z,63.50
2022-07-25T18:17:14.262Z,64.20
2022-07-25T18:19:42.241Z,63.60
2022-07-25T18:22:10.144Z,63.20
2022-07-25T18:24:38.309Z,63.00
2022-07-25T18:27:06.809Z,63.70
2022-07-25T18:29:38.198Z,63.20
2022-07-25T18:32:06.752Z,63.80
2022-07-25T18:34:34.684Z,63.70
2022-07-25T18:37:02.501Z,63.10
2022-07-25T18:39:30.369Z,63.70
2022-07-25T18:41:58.522Z,64.00
2022-07-25T18:44:26.386Z,63.60
2022-07-25T18:46:55.580Z,63.50
2022-07-25T18:49:23.961Z,63.10
2022-07-25T18:51:51.853Z,61.90
2022-07-25T18:54:19.754Z,63.00
2022-07-25T18:56:47.569Z,62.10
2022-07-25T18:59:15.999Z,61.10
2022-07-25T19:01:43.941Z,60.80
2022-07-25T19:04:13.289Z,61.50
2022-07-25T19:06:41.126Z,60.50
2022-07-25T19:09:10.230Z,60.00
2022-07-25T19:11:42.206Z,60.60
2022-07-25T19:14:10.765Z,60.90
2022-07-25T19:16:38.819Z,60.50
2022-07-25T19:19:06.921Z,59.60
2022-07-25T19:21:36.793Z,59.50
2022-07-25T19:24:05.405Z,60.40
2022-07-25T19:26:33.608Z,60.40
2022-07-25T19:29:01.423Z,60.20
2022-07-25T19:31:29.300Z,60.10
2022-07-25T19:33:57.221Z,60.50
2022-07-25T19:36:25.047Z,59.80
2022-07-25T19:38:54.153Z,61.90
2022-07-25T19:41:22.037Z,60.50
2022-07-25T19:43:50.136Z,60.70
2022-07-25T19:46:18.020Z,60.00
2022-07-25T19:48:46.073Z,61.90
2022-07-25T19:51:14.022Z,60.10
2022-07-25T19:53:41.903Z,60.80
2022-07-25T19:56:11.152Z,60.30
2022-07-25T19:58:40.389Z,60.30
2022-07-25T20:01:11.390Z,60.60
2022-07-25T20:03:39.543Z,60.30
2022-07-25T20:06:08.759Z,61.50
2022-07-25T20:08:36.949Z,61.10
2022-07-25T20:11:04.876Z,60.30
2022-07-25T20:13:34.146Z,60.70
2022-07-25T20:16:03.671Z,61.00
2022-07-25T20:18:31.818Z,60.70
2022-07-25T20:21:00.235Z,60.40
2022-07-25T20:23:28.225Z,60.90
2022-07-25T20:25:56.016Z,60.20
2022-07-25T20:28:24.171Z,60.30
2022-07-25T20:30:54.017Z,60.60
2022-07-25T20:33:23.680Z,60.40
2022-07-25T20:35:51.488Z,61.00
2022-07-25T20:38:19.336Z,61.20
2022-07-25T20:40:49.593Z,61.40
2022-07-25T20:43:18.608Z,62.10
2022-07-25T20:45:47.458Z,61.10
2022-07-25T20:48:17.174Z,61.40
2022-07-25T20:50:45.457Z,61.60
2022-07-25T20:53:13.732Z,61.80
2022-07-25T20:55:41.556Z,61.80
2022-07-25T20:58:09.394Z,62.00
2022-07-25T21:00:37.373Z,61.90
2022-07-25T21:03:08.048Z,62.20
2022-07-25T21:05:39.291Z,62.60
2022-07-25T21:08:07.865Z,62.20
2022-07-25T21:10:35.785Z,62.40
2022-07-25T21:13:03.651Z,62.30
2022-07-25T21:15:31.908Z,62.40
2022-07-25T21:17:59.853Z,62.20
2022-07-25T21:20:28.073Z,62.50
2022-07-25T21:22:57.229Z,62.30
2022-07-25T21:25:25.069Z,62.80
2022-07-25T21:27:52.943Z,62.70
2022-07-25T21:30:20.783Z,63.10
2022-07-25T21:32:48.638Z,62.90
2022-07-25T21:35:16.471Z,62.20
2022-07-25T21:37:44.370Z,63.20
2022-07-25T21:40:13.836Z,63.50
2022-07-25T21:42:42.356Z,63.20
2022-07-25T21:45:10.972Z,63.00
2022-07-25T21:47:38.907Z,63.30
2022-07-25T21:50:25.475Z,63.00
2022-07-25T21:52:54.141Z,63.30
2022-07-25T21:55:23.372Z,63.30
2022-07-25T21:57:52.199Z,63.80
2022-07-25T22:00:21.015Z,63.70
2022-07-25T22:02:49.052Z,63.70
2022-07-25T22:05:18.994Z,63.50
2022-07-25T22:07:47.387Z,62.90
2022-07-25T22:10:16.546Z,63.60
2022-07-25T22:12:46.072Z,64.00
2022-07-25T22:15:14.753Z,63.80
2022-07-25T22:17:48.470Z,64.10
2022-07-25T22:20:18.149Z,64.20
2022-07-25T22:22:46.519Z,64.70
2022-07-25T22:25:14.565Z,64.60
2022-07-25T22:27:42.503Z,64.60
2022-07-25T22:30:18.220Z,64.70
2022-07-25T22:32:47.426Z,64.90
2022-07-25T22:35:15.498Z,64.90
2022-07-25T22:37:44.340Z,65.60
2022-07-25T22:40:13.519Z,65.40
2022-07-25T22:42:41.782Z,66.00
2022-07-25T22:45:12.152Z,65.80
2022-07-25T22:47:40.048Z,66.20
2022-07-25T22:50:09.803Z,66.50
2022-07-25T22:52:37.605Z,67.20
2022-07-25T22:55:06.024Z,66.80
2022-07-25T22:57:37.007Z,66.70
2022-07-25T23:00:07.294Z,66.90
2022-07-25T23:02:36.696Z,67.30
2022-07-25T23:05:05.680Z,67.20
2022-07-25T23:07:34.006Z,67.50
2022-07-25T23:10:02.295Z,68.00
2022-07-25T23:12:30.216Z,67.70
2022-07-25T23:14:58.076Z,67.40
2022-07-25T23:17:25.871Z,67.70
2022-07-25T23:19:56.692Z,67.60
2022-07-25T23:22:26.706Z,67.90
2022-07-25T23:24:54.652Z,67.60
2022-07-25T23:27:22.527Z,68.40
2022-07-25T23:29:50.456Z,68.90
2022-07-25T23:32:18.615Z,68.90
2022-07-25T23:34:46.679Z,69.20
2022-07-25T23:37:15.791Z,69.00
2022-07-25T23:39:43.664Z,69.60
2022-07-25T23:42:11.527Z,69.50
2022-07-25T23:44:39.344Z,69.30
2022-07-25T23:47:08.603Z,69.40
2022-07-25T23:49:38.667Z,69.60
2022-07-25T23:52:06.912Z,69.90
2022-07-25T23:54:38.108Z,70.10
2022-07-25T23:57:07.074Z,69.80
2022-07-25T23:59:35.246Z,70.00
